Airport ID:1G3
Update Time (UTC):13/06/2024 08:02
Wind Speed (Knots):7
Wind Direction (Magnetic):220
Temperature (°C):18
Dew Point (°C):12
Humidity (%):68
Altimeter (inHg):29.99
Density Altitude (Feet):
Visibility:10+
Clouds (Hundreds of feet):***
Present Weather:
METAR:METAR 1G3 130800Z AUTO 21007KT 10SM 18/12 A2999 RMK A01

The data displayed is for advisory purposes only and is not to be used for flight planning or operations.